sensor_id;sensor_type;location;lat;lon;timestamp;temperature;humidity
14682;DHT22;7429;52.498;13.480;2023-05-16T00:03:01;14.40;99.90
14682;DHT22;7429;52.498;13.480;2023-05-16T00:06:05;14.40;99.90
14682;DHT22;7429;52.498;13.480;2023-05-16T00:09:09;14.40;99.90
14682;DHT22;7429;52.498;13.480;2023-05-16T00:12:12;14.40;99.90
14682;DHT22;7429;52.498;13.480;2023-05-16T00:15:15;14.40;99.90
14682;DHT22;7429;52.498;13.480;2023-05-16T00:18:20;14.40;99.90
14682;DHT22;7429;52.498;13.480;2023-05-16T00:21:23;14.40;99.90
14682;DHT22;7429;52.498;13.480;2023-05-16T00:24:26;14.50;99.90
14682;DHT22;7429;52.498;13.480;2023-05-16T00:27:30;14.40;99.90
14682;DHT22;7429;52.498;13.480;2023-05-16T00:30:33;14.40;99.90
14682;DHT22;7429;52.498;13.480;2023-05-16T00:33:37;14.50;99.90
14682;DHT22;7429;52.498;13.480;2023-05-16T00:36:40;14.40;99.90
14682;DHT22;7429;52.498;13.480;2023-05-16T00:39:43;14.40;99.90
14682;DHT22;7429;52.498;13.480;2023-05-16T00:42:47;14.40;99.90
14682;DHT22;7429;52.498;13.480;2023-05-16T00:45:50;14.30;99.90
14682;DHT22;7429;52.498;13.480;2023-05-16T00:48:54;14.30;99.90
14682;DHT22;7429;52.498;13.480;2023-05-16T00:51:57;14.20;99.90
14682;DHT22;7429;52.498;13.480;2023-05-16T00:55:04;14.20;99.90
14682;DHT22;7429;52.498;13.480;2023-05-16T00:58:08;14.10;99.90
14682;DHT22;7429;52.498;13.480;2023-05-16T01:01:13;14.10;99.90
14682;DHT22;7429;52.498;13.480;2023-05-16T01:04:18;14.10;99.90
14682;DHT22;7429;52.498;13.480;2023-05-16T01:07:21;14.00;99.90
14682;DHT22;7429;52.498;13.480;2023-05-16T01:10:26;14.00;99.90
14682;DHT22;7429;52.498;13.480;2023-05-16T01:13:41;14.00;99.90
14682;DHT22;7429;52.498;13.480;2023-05-16T01:16:53;13.90;99.90
14682;DHT22;7429;52.498;13.480;2023-05-16T01:20:09;13.80;99.90
14682;DHT22;7429;52.498;13.480;2023-05-16T01:23:25;13.80;99.90
14682;DHT22;7429;52.498;13.480;2023-05-16T01:26:34;13.70;99.90
14682;DHT22;7429;52.498;13.480;2023-05-16T01:29:40;13.70;99.90
14682;DHT22;7429;52.498;13.480;2023-05-16T01:32:44;13.60;99.90
14682;DHT22;7429;52.498;13.480;2023-05-16T01:35:54;13.50;99.90
14682;DHT22;7429;52.498;13.480;2023-05-16T01:39:04;13.50;99.90
14682;DHT22;7429;52.498;13.480;2023-05-16T01:42:14;13.40;99.90
14682;DHT22;7429;52.498;13.480;2023-05-16T01:45:22;13.30;99.90
14682;DHT22;7429;52.498;13.480;2023-05-16T01:48:31;13.30;99.90
14682;DHT22;7429;52.498;13.480;2023-05-16T01:51:38;13.20;99.90
14682;DHT22;7429;52.498;13.480;2023-05-16T01:54:44;13.10;99.90
14682;DHT22;7429;52.498;13.480;2023-05-16T01:57:52;13.10;99.90
14682;DHT22;7429;52.498;13.480;2023-05-16T02:00:59;13.00;99.90
14682;DHT22;7429;52.498;13.480;2023-05-16T02:04:04;12.90;99.90
14682;DHT22;7429;52.498;13.480;2023-05-16T02:07:09;12.90;99.90
14682;DHT22;7429;52.498;13.480;2023-05-16T02:10:12;12.90;99.90
14682;DHT22;7429;52.498;13.480;2023-05-16T02:13:17;12.80;99.90
14682;DHT22;7429;52.498;13.480;2023-05-16T02:16:20;12.80;99.90
14682;DHT22;7429;52.498;13.480;2023-05-16T02:19:23;12.80;99.90
14682;DHT22;7429;52.498;13.480;2023-05-16T02:22:26;12.70;99.90
14682;DHT22;7429;52.498;13.480;2023-05-16T02:25:29;12.70;99.90
14682;DHT22;7429;52.498;13.480;2023-05-16T02:28:34;12.60;99.90
14682;DHT22;7429;52.498;13.480;2023-05-16T02:31:37;12.60;99.90
14682;DHT22;7429;52.498;13.480;2023-05-16T02:34:40;12.60;99.90
14682;DHT22;7429;52.498;13.480;2023-05-16T02:37:43;12.50;99.90
14682;DHT22;7429;52.498;13.480;2023-05-16T02:40:47;12.40;99.90
14682;DHT22;7429;52.498;13.480;2023-05-16T02:43:52;12.40;99.90
14682;DHT22;7429;52.498;13.480;2023-05-16T02:46:55;12.30;99.90
14682;DHT22;7429;52.498;13.480;2023-05-16T02:49:58;12.30;99.90
14682;DHT22;7429;52.498;13.480;2023-05-16T02:53:01;12.20;99.90
14682;DHT22;7429;52.498;13.480;2023-05-16T02:56:04;12.20;99.90
14682;DHT22;7429;52.498;13.480;2023-05-16T02:59:11;12.10;99.90
14682;DHT22;7429;52.498;13.480;2023-05-16T03:02:15;12.10;99.90
14682;DHT22;7429;52.498;13.480;2023-05-16T03:05:18;12.20;99.90
14682;DHT22;7429;52.498;13.480;2023-05-16T03:08:21;12.20;99.90
14682;DHT22;7429;52.498;13.480;2023-05-16T03:11:24;12.10;99.90
14682;DHT22;7429;52.498;13.480;2023-05-16T03:14:51;12.10;99.90
14682;DHT22;7429;52.498;13.480;2023-05-16T03:18:20;12.20;99.90
14682;DHT22;7429;52.498;13.480;2023-05-16T03:21:23;12.10;99.90
14682;DHT22;7429;52.498;13.480;2023-05-16T03:24:26;12.10;99.90
14682;DHT22;7429;52.498;13.480;2023-05-16T03:27:29;12.00;99.90
14682;DHT22;7429;52.498;13.480;2023-05-16T03:30:34;12.00;99.90
14682;DHT22;7429;52.498;13.480;2023-05-16T03:33:38;12.10;99.90
14682;DHT22;7429;52.498;13.480;2023-05-16T03:36:41;12.00;99.90
14682;DHT22;7429;52.498;13.480;2023-05-16T03:39:44;12.00;99.90
14682;DHT22;7429;52.498;13.480;2023-05-16T03:42:47;12.00;99.90
14682;DHT22;7429;52.498;13.480;2023-05-16T03:45:52;12.00;99.90
14682;DHT22;7429;52.498;13.480;2023-05-16T03:48:55;12.00;99.90
14682;DHT22;7429;52.498;13.480;2023-05-16T03:51:58;12.00;99.90
14682;DHT22;7429;52.498;13.480;2023-05-16T03:55:01;12.00;99.90
14682;DHT22;7429;52.498;13.480;2023-05-16T03:58:06;11.90;99.90
14682;DHT22;7429;52.498;13.480;2023-05-16T04:01:11;11.90;99.90
14682;DHT22;7429;52.498;13.480;2023-05-16T04:04:14;11.80;99.90
14682;DHT22;7429;52.498;13.480;2023-05-16T04:07:17;11.80;99.90
14682;DHT22;7429;52.498;13.480;2023-05-16T04:10:23;11.80;99.90
14682;DHT22;7429;52.498;13.480;2023-05-16T04:13:26;11.70;99.90
14682;DHT22;7429;52.498;13.480;2023-05-16T04:16:31;11.70;99.90
14682;DHT22;7429;52.498;13.480;2023-05-16T04:19:34;11.80;99.90
14682;DHT22;7429;52.498;13.480;2023-05-16T04:22:40;11.70;99.90
14682;DHT22;7429;52.498;13.480;2023-05-16T04:25:43;11.70;99.90
14682;DHT22;7429;52.498;13.480;2023-05-16T04:28:47;11.70;99.90
14682;DHT22;7429;52.498;13.480;2023-05-16T04:31:52;11.70;99.90
14682;DHT22;7429;52.498;13.480;2023-05-16T04:34:56;11.60;99.90
14682;DHT22;7429;52.498;13.480;2023-05-16T04:37:59;11.60;99.90
14682;DHT22;7429;52.498;13.480;2023-05-16T04:41:02;11.60;99.90
14682;DHT22;7429;52.498;13.480;2023-05-16T04:44:05;11.60;99.90
14682;DHT22;7429;52.498;13.480;2023-05-16T04:47:10;11.50;99.90
14682;DHT22;7429;52.498;13.480;2023-05-16T04:50:14;11.50;99.90
14682;DHT22;7429;52.498;13.480;2023-05-16T04:53:18;11.40;99.90
14682;DHT22;7429;52.498;13.480;2023-05-16T04:56:22;11.50;99.90
14682;DHT22;7429;52.498;13.480;2023-05-16T04:59:24;11.40;99.90
14682;DHT22;7429;52.498;13.480;2023-05-16T05:02:29;11.40;99.90
14682;DHT22;7429;52.498;13.480;2023-05-16T05:05:32;11.40;99.90
14682;DHT22;7429;52.498;13.480;2023-05-16T05:08:36;11.40;99.90
14682;DHT22;7429;52.498;13.480;2023-05-16T05:11:39;11.40;99.90
14682;DHT22;7429;52.498;13.480;2023-05-16T05:14:43;11.40;99.90
14682;DHT22;7429;52.498;13.480;2023-05-16T05:17:47;11.40;99.90
14682;DHT22;7429;52.498;13.480;2023-05-16T05:20:50;11.30;99.90
14682;DHT22;7429;52.498;13.480;2023-05-16T05:23:57;11.30;99.90
14682;DHT22;7429;52.498;13.480;2023-05-16T05:27:04;11.20;99.90
14682;DHT22;7429;52.498;13.480;2023-05-16T05:30:08;11.20;99.90
14682;DHT22;7429;52.498;13.480;2023-05-16T05:33:15;11.20;99.90
14682;DHT22;7429;52.498;13.480;2023-05-16T05:36:19;11.10;99.90
14682;DHT22;7429;52.498;13.480;2023-05-16T05:39:23;11.10;99.90
14682;DHT22;7429;52.498;13.480;2023-05-16T05:42:29;11.20;99.90
14682;DHT22;7429;52.498;13.480;2023-05-16T05:45:32;11.20;99.90
14682;DHT22;7429;52.498;13.480;2023-05-16T05:48:36;11.30;99.90
14682;DHT22;7429;52.498;13.480;2023-05-16T05:51:40;11.30;99.90
14682;DHT22;7429;52.498;13.480;2023-05-16T05:54:43;11.30;99.90
14682;DHT22;7429;52.498;13.480;2023-05-16T05:57:46;11.30;99.90
14682;DHT22;7429;52.498;13.480;2023-05-16T06:00:49;11.30;99.90
14682;DHT22;7429;52.498;13.480;2023-05-16T06:03:54;11.40;99.90
14682;DHT22;7429;52.498;13.480;2023-05-16T06:06:59;11.40;99.90
14682;DHT22;7429;52.498;13.480;2023-05-16T06:10:02;11.40;99.90
14682;DHT22;7429;52.498;13.480;2023-05-16T06:13:06;11.30;99.90
14682;DHT22;7429;52.498;13.480;2023-05-16T06:16:10;11.40;99.90
14682;DHT22;7429;52.498;13.480;2023-05-16T06:19:14;11.40;99.90
14682;DHT22;7429;52.498;13.480;2023-05-16T06:22:17;11.40;99.90
14682;DHT22;7429;52.498;13.480;2023-05-16T06:25:21;11.40;99.90
14682;DHT22;7429;52.498;13.480;2023-05-16T06:28:24;11.40;99.90
14682;DHT22;7429;52.498;13.480;2023-05-16T06:31:27;11.50;99.90
14682;DHT22;7429;52.498;13.480;2023-05-16T06:34:47;11.40;99.90
14682;DHT22;7429;52.498;13.480;2023-05-16T06:47:07;11.50;99.90
14682;DHT22;7429;52.498;13.480;2023-05-16T06:50:39;11.60;99.90
14682;DHT22;7429;52.498;13.480;2023-05-16T06:53:42;11.50;99.90
14682;DHT22;7429;52.498;13.480;2023-05-16T06:56:45;11.50;99.90
14682;DHT22;7429;52.498;13.480;2023-05-16T06:59:48;11.50;99.90
14682;DHT22;7429;52.498;13.480;2023-05-16T07:02:51;11.40;99.90
14682;DHT22;7429;52.498;13.480;2023-05-16T07:05:56;11.40;99.90
14682;DHT22;7429;52.498;13.480;2023-05-16T07:08:59;11.50;99.90
14682;DHT22;7429;52.498;13.480;2023-05-16T07:12:03;11.60;99.90
14682;DHT22;7429;52.498;13.480;2023-05-16T07:15:08;11.70;99.90
14682;DHT22;7429;52.498;13.480;2023-05-16T07:18:12;11.70;99.90
14682;DHT22;7429;52.498;13.480;2023-05-16T07:21:18;11.70;99.90
14682;DHT22;7429;52.498;13.480;2023-05-16T07:24:21;11.80;99.90
14682;DHT22;7429;52.498;13.480;2023-05-16T07:27:24;11.80;99.90
14682;DHT22;7429;52.498;13.480;2023-05-16T07:30:27;11.80;99.90
14682;DHT22;7429;52.498;13.480;2023-05-16T07:33:31;11.80;99.90
14682;DHT22;7429;52.498;13.480;2023-05-16T07:36:36;11.80;99.90
14682;DHT22;7429;52.498;13.480;2023-05-16T07:39:39;11.80;99.90
14682;DHT22;7429;52.498;13.480;2023-05-16T07:42:42;11.80;99.90
14682;DHT22;7429;52.498;13.480;2023-05-16T07:45:45;11.90;99.90
14682;DHT22;7429;52.498;13.480;2023-05-16T07:48:48;12.00;99.90
14682;DHT22;7429;52.498;13.480;2023-05-16T07:51:55;12.10;99.90
14682;DHT22;7429;52.498;13.480;2023-05-16T07:54:59;12.10;99.90
14682;DHT22;7429;52.498;13.480;2023-05-16T07:58:04;12.20;99.90
14682;DHT22;7429;52.498;13.480;2023-05-16T08:01:07;12.20;99.90
14682;DHT22;7429;52.498;13.480;2023-05-16T08:04:10;12.30;99.90
14682;DHT22;7429;52.498;13.480;2023-05-16T08:07:18;12.30;99.90
14682;DHT22;7429;52.498;13.480;2023-05-16T08:10:21;12.30;99.90
14682;DHT22;7429;52.498;13.480;2023-05-16T08:13:25;12.20;99.90
14682;DHT22;7429;52.498;13.480;2023-05-16T08:16:28;12.10;99.90
14682;DHT22;7429;52.498;13.480;2023-05-16T08:19:33;12.20;99.90
14682;DHT22;7429;52.498;13.480;2023-05-16T08:22:38;12.10;99.90
14682;DHT22;7429;52.498;13.480;2023-05-16T08:25:41;12.10;99.90
14682;DHT22;7429;52.498;13.480;2023-05-16T08:28:44;12.20;99.90
14682;DHT22;7429;52.498;13.480;2023-05-16T08:31:48;12.20;99.90
14682;DHT22;7429;52.498;13.480;2023-05-16T08:34:51;12.00;99.90
14682;DHT22;7429;52.498;13.480;2023-05-16T08:37:55;11.90;99.90
14682;DHT22;7429;52.498;13.480;2023-05-16T08:40:59;11.90;99.90
14682;DHT22;7429;52.498;13.480;2023-05-16T08:44:02;11.90;99.90
14682;DHT22;7429;52.498;13.480;2023-05-16T08:47:10;11.80;99.90
14682;DHT22;7429;52.498;13.480;2023-05-16T08:50:15;11.80;99.90
14682;DHT22;7429;52.498;13.480;2023-05-16T08:53:26;11.90;99.90
14682;DHT22;7429;52.498;13.480;2023-05-16T08:56:35;11.90;99.90
14682;DHT22;7429;52.498;13.480;2023-05-16T08:59:40;12.00;99.90
14682;DHT22;7429;52.498;13.480;2023-05-16T09:02:44;12.00;99.90
14682;DHT22;7429;52.498;13.480;2023-05-16T09:05:48;12.00;99.90
14682;DHT22;7429;52.498;13.480;2023-05-16T09:08:52;12.00;99.90
14682;DHT22;7429;52.498;13.480;2023-05-16T09:12:05;12.00;99.90
14682;DHT22;7429;52.498;13.480;2023-05-16T09:15:09;12.10;99.90
14682;DHT22;7429;52.498;13.480;2023-05-16T09:18:13;12.20;99.90
14682;DHT22;7429;52.498;13.480;2023-05-16T09:21:28;12.30;99.90
14682;DHT22;7429;52.498;13.480;2023-05-16T09:32:26;12.40;99.90
14682;DHT22;7429;52.498;13.480;2023-05-16T09:35:22;12.50;99.90
14682;DHT22;7429;52.498;13.480;2023-05-16T09:38:50;12.50;99.90
14682;DHT22;7429;52.498;13.480;2023-05-16T09:42:09;12.60;99.90
14682;DHT22;7429;52.498;13.480;2023-05-16T09:45:58;12.50;99.90
14682;DHT22;7429;52.498;13.480;2023-05-16T09:49:34;12.60;99.90
14682;DHT22;7429;52.498;13.480;2023-05-16T09:53:09;12.60;99.90
14682;DHT22;7429;52.498;13.480;2023-05-16T09:56:31;12.60;99.90
14682;DHT22;7429;52.498;13.480;2023-05-16T09:59:53;12.70;99.90
14682;DHT22;7429;52.498;13.480;2023-05-16T10:03:22;12.70;99.90
14682;DHT22;7429;52.498;13.480;2023-05-16T10:06:38;12.80;99.90
14682;DHT22;7429;52.498;13.480;2023-05-16T10:10:16;12.80;99.90
14682;DHT22;7429;52.498;13.480;2023-05-16T10:13:23;12.60;99.90
14682;DHT22;7429;52.498;13.480;2023-05-16T10:16:45;12.60;99.90
14682;DHT22;7429;52.498;13.480;2023-05-16T10:20:09;12.60;99.90
14682;DHT22;7429;52.498;13.480;2023-05-16T10:23:40;12.60;99.90
14682;DHT22;7429;52.498;13.480;2023-05-16T10:27:20;12.70;99.90
14682;DHT22;7429;52.498;13.480;2023-05-16T10:30:46;12.80;99.90
14682;DHT22;7429;52.498;13.480;2023-05-16T10:34:56;12.80;99.90
14682;DHT22;7429;52.498;13.480;2023-05-16T10:38:11;12.80;99.90
14682;DHT22;7429;52.498;13.480;2023-05-16T10:41:21;12.70;99.90
14682;DHT22;7429;52.498;13.480;2023-05-16T10:44:31;12.80;99.90
14682;DHT22;7429;52.498;13.480;2023-05-16T10:52:11;13.10;99.90
14682;DHT22;7429;52.498;13.480;2023-05-16T10:55:29;13.20;99.90
14682;DHT22;7429;52.498;13.480;2023-05-16T10:58:46;13.20;99.90
14682;DHT22;7429;52.498;13.480;2023-05-16T11:02:22;13.10;99.90
14682;DHT22;7429;52.498;13.480;2023-05-16T11:05:38;12.90;99.90
14682;DHT22;7429;52.498;13.480;2023-05-16T11:09:03;12.70;99.90
14682;DHT22;7429;52.498;13.480;2023-05-16T11:19:27;12.30;99.90
14682;DHT22;7429;52.498;13.480;2023-05-16T11:22:27;12.20;99.90
14682;DHT22;7429;52.498;13.480;2023-05-16T11:25:37;12.40;99.90
14682;DHT22;7429;52.498;13.480;2023-05-16T11:28:43;12.50;99.90
14682;DHT22;7429;52.498;13.480;2023-05-16T11:31:51;12.70;99.90
14682;DHT22;7429;52.498;13.480;2023-05-16T11:34:57;12.80;99.90
14682;DHT22;7429;52.498;13.480;2023-05-16T11:38:01;12.90;99.90
14682;DHT22;7429;52.498;13.480;2023-05-16T11:41:07;13.10;99.90
14682;DHT22;7429;52.498;13.480;2023-05-16T11:44:10;13.10;99.90
14682;DHT22;7429;52.498;13.480;2023-05-16T11:47:19;13.20;99.90
14682;DHT22;7429;52.498;13.480;2023-05-16T11:50:22;13.10;99.90
14682;DHT22;7429;52.498;13.480;2023-05-16T11:53:26;13.00;99.90
14682;DHT22;7429;52.498;13.480;2023-05-16T11:56:34;12.90;99.90
14682;DHT22;7429;52.498;13.480;2023-05-16T11:59:37;13.00;99.90
14682;DHT22;7429;52.498;13.480;2023-05-16T12:02:40;13.30;99.90
14682;DHT22;7429;52.498;13.480;2023-05-16T12:05:52;13.60;99.90
14682;DHT22;7429;52.498;13.480;2023-05-16T12:08:55;14.00;99.90
14682;DHT22;7429;52.498;13.480;2023-05-16T12:12:04;14.20;99.90
14682;DHT22;7429;52.498;13.480;2023-05-16T12:15:09;14.10;99.90
14682;DHT22;7429;52.498;13.480;2023-05-16T12:18:13;13.90;99.90
14682;DHT22;7429;52.498;13.480;2023-05-16T12:21:17;13.90;99.90
14682;DHT22;7429;52.498;13.480;2023-05-16T12:24:22;13.90;99.90
14682;DHT22;7429;52.498;13.480;2023-05-16T12:27:32;13.80;99.90
14682;DHT22;7429;52.498;13.480;2023-05-16T12:30:39;13.80;99.90
14682;DHT22;7429;52.498;13.480;2023-05-16T12:33:44;13.80;99.90
14682;DHT22;7429;52.498;13.480;2023-05-16T12:36:50;13.70;99.90
14682;DHT22;7429;52.498;13.480;2023-05-16T12:39:58;13.60;99.90
14682;DHT22;7429;52.498;13.480;2023-05-16T12:43:11;13.70;99.90
14682;DHT22;7429;52.498;13.480;2023-05-16T12:46:15;13.70;99.90
14682;DHT22;7429;52.498;13.480;2023-05-16T12:49:19;13.80;99.90
14682;DHT22;7429;52.498;13.480;2023-05-16T12:52:28;14.00;99.90
14682;DHT22;7429;52.498;13.480;2023-05-16T12:55:31;14.20;99.90
14682;DHT22;7429;52.498;13.480;2023-05-16T12:58:35;14.30;99.90
14682;DHT22;7429;52.498;13.480;2023-05-16T13:01:38;14.40;99.90
14682;DHT22;7429;52.498;13.480;2023-05-16T13:04:42;14.80;99.90
14682;DHT22;7429;52.498;13.480;2023-05-16T13:07:46;15.10;99.90
14682;DHT22;7429;52.498;13.480;2023-05-16T13:10:49;15.30;99.90
14682;DHT22;7429;52.498;13.480;2023-05-16T13:13:53;15.60;99.90
14682;DHT22;7429;52.498;13.480;2023-05-16T13:16:58;15.80;99.90
14682;DHT22;7429;52.498;13.480;2023-05-16T13:20:02;16.10;99.90
14682;DHT22;7429;52.498;13.480;2023-05-16T13:23:09;16.00;99.90
14682;DHT22;7429;52.498;13.480;2023-05-16T13:26:12;15.90;99.90
14682;DHT22;7429;52.498;13.480;2023-05-16T13:29:16;15.80;99.90
14682;DHT22;7429;52.498;13.480;2023-05-16T13:32:19;16.30;99.90
14682;DHT22;7429;52.498;13.480;2023-05-16T13:35:23;17.00;99.90
14682;DHT22;7429;52.498;13.480;2023-05-16T13:38:27;17.50;99.90
14682;DHT22;7429;52.498;13.480;2023-05-16T13:41:30;17.70;99.90
14682;DHT22;7429;52.498;13.480;2023-05-16T13:44:39;18.10;99.90
14682;DHT22;7429;52.498;13.480;2023-05-16T13:47:45;18.40;99.90
14682;DHT22;7429;52.498;13.480;2023-05-16T13:50:49;18.70;99.90
14682;DHT22;7429;52.498;13.480;2023-05-16T13:53:52;18.70;99.90
14682;DHT22;7429;52.498;13.480;2023-05-16T13:56:56;19.00;99.90
14682;DHT22;7429;52.498;13.480;2023-05-16T14:00:00;18.70;99.90
14682;DHT22;7429;52.498;13.480;2023-05-16T14:03:26;18.00;99.90
14682;DHT22;7429;52.498;13.480;2023-05-16T14:06:29;17.40;99.90
14682;DHT22;7429;52.498;13.480;2023-05-16T14:09:36;17.10;99.90
14682;DHT22;7429;52.498;13.480;2023-05-16T14:12:40;16.90;99.90
14682;DHT22;7429;52.498;13.480;2023-05-16T14:15:45;16.90;99.90
14682;DHT22;7429;52.498;13.480;2023-05-16T14:18:49;17.10;99.90
14682;DHT22;7429;52.498;13.480;2023-05-16T14:21:52;17.20;99.90
14682;DHT22;7429;52.498;13.480;2023-05-16T14:24:58;17.10;99.90
14682;DHT22;7429;52.498;13.480;2023-05-16T14:28:02;17.00;99.90
14682;DHT22;7429;52.498;13.480;2023-05-16T14:31:07;16.80;99.90
14682;DHT22;7429;52.498;13.480;2023-05-16T14:34:10;16.70;99.90
14682;DHT22;7429;52.498;13.480;2023-05-16T14:37:16;16.90;99.90
14682;DHT22;7429;52.498;13.480;2023-05-16T14:40:21;16.80;99.90
14682;DHT22;7429;52.498;13.480;2023-05-16T14:43:24;16.60;99.90
14682;DHT22;7429;52.498;13.480;2023-05-16T14:46:28;16.40;99.90
14682;DHT22;7429;52.498;13.480;2023-05-16T14:49:34;16.30;99.90
14682;DHT22;7429;52.498;13.480;2023-05-16T14:52:44;16.30;99.90
14682;DHT22;7429;52.498;13.480;2023-05-16T14:55:50;16.50;99.90
14682;DHT22;7429;52.498;13.480;2023-05-16T14:58:53;17.30;99.90
14682;DHT22;7429;52.498;13.480;2023-05-16T15:01:58;17.90;99.90
14682;DHT22;7429;52.498;13.480;2023-05-16T15:05:02;18.10;99.90
14682;DHT22;7429;52.498;13.480;2023-05-16T15:08:07;17.70;99.90
14682;DHT22;7429;52.498;13.480;2023-05-16T15:11:10;17.30;99.90
14682;DHT22;7429;52.498;13.480;2023-05-16T15:14:13;17.30;99.90
14682;DHT22;7429;52.498;13.480;2023-05-16T15:17:18;17.20;99.90
14682;DHT22;7429;52.498;13.480;2023-05-16T15:20:25;17.00;99.90
14682;DHT22;7429;52.498;13.480;2023-05-16T15:23:29;16.80;99.90
14682;DHT22;7429;52.498;13.480;2023-05-16T15:26:35;16.90;99.90
14682;DHT22;7429;52.498;13.480;2023-05-16T15:29:40;17.40;99.90
14682;DHT22;7429;52.498;13.480;2023-05-16T15:32:44;17.90;99.90
14682;DHT22;7429;52.498;13.480;2023-05-16T15:35:51;18.00;99.90
14682;DHT22;7429;52.498;13.480;2023-05-16T15:38:54;17.60;99.90
14682;DHT22;7429;52.498;13.480;2023-05-16T15:41:57;17.40;99.90
14682;DHT22;7429;52.498;13.480;2023-05-16T15:45:11;17.10;99.90
14682;DHT22;7429;52.498;13.480;2023-05-16T15:48:17;17.10;99.90
14682;DHT22;7429;52.498;13.480;2023-05-16T15:51:23;17.20;99.90
14682;DHT22;7429;52.498;13.480;2023-05-16T15:54:29;17.30;99.90
14682;DHT22;7429;52.498;13.480;2023-05-16T15:57:35;17.50;99.90
14682;DHT22;7429;52.498;13.480;2023-05-16T16:00:38;17.70;99.90
14682;DHT22;7429;52.498;13.480;2023-05-16T16:03:43;17.70;99.90
14682;DHT22;7429;52.498;13.480;2023-05-16T16:06:47;17.40;99.90
14682;DHT22;7429;52.498;13.480;2023-05-16T16:09:53;17.20;99.90
14682;DHT22;7429;52.498;13.480;2023-05-16T16:12:59;17.00;99.90
14682;DHT22;7429;52.498;13.480;2023-05-16T16:16:05;17.00;99.90
14682;DHT22;7429;52.498;13.480;2023-05-16T16:19:10;16.90;99.90
14682;DHT22;7429;52.498;13.480;2023-05-16T16:22:13;16.80;99.90
14682;DHT22;7429;52.498;13.480;2023-05-16T16:25:17;16.70;99.90
14682;DHT22;7429;52.498;13.480;2023-05-16T16:28:20;16.60;99.90
14682;DHT22;7429;52.498;13.480;2023-05-16T16:31:28;16.60;99.90
14682;DHT22;7429;52.498;13.480;2023-05-16T16:34:35;16.60;99.90
14682;DHT22;7429;52.498;13.480;2023-05-16T16:37:41;16.70;99.90
14682;DHT22;7429;52.498;13.480;2023-05-16T16:41:05;16.80;99.90
14682;DHT22;7429;52.498;13.480;2023-05-16T16:44:09;16.70;99.90
14682;DHT22;7429;52.498;13.480;2023-05-16T16:47:12;16.60;99.90
14682;DHT22;7429;52.498;13.480;2023-05-16T16:50:18;16.60;99.90
14682;DHT22;7429;52.498;13.480;2023-05-16T16:53:21;16.50;99.90
14682;DHT22;7429;52.498;13.480;2023-05-16T16:56:24;16.30;99.90
14682;DHT22;7429;52.498;13.480;2023-05-16T16:59:28;16.40;99.90
14682;DHT22;7429;52.498;13.480;2023-05-16T17:02:31;16.30;99.90
14682;DHT22;7429;52.498;13.480;2023-05-16T17:05:36;16.20;99.90
14682;DHT22;7429;52.498;13.480;2023-05-16T17:08:43;16.10;99.90
14682;DHT22;7429;52.498;13.480;2023-05-16T17:11:49;16.10;99.90
14682;DHT22;7429;52.498;13.480;2023-05-16T17:14:53;16.10;99.90
14682;DHT22;7429;52.498;13.480;2023-05-16T17:17:57;16.00;99.90
14682;DHT22;7429;52.498;13.480;2023-05-16T17:21:02;16.00;99.90
14682;DHT22;7429;52.498;13.480;2023-05-16T17:24:06;16.00;99.90
14682;DHT22;7429;52.498;13.480;2023-05-16T17:27:10;16.00;99.90
14682;DHT22;7429;52.498;13.480;2023-05-16T17:30:14;16.00;99.90
14682;DHT22;7429;52.498;13.480;2023-05-16T17:33:20;15.90;99.90
14682;DHT22;7429;52.498;13.480;2023-05-16T17:36:25;15.80;99.90
14682;DHT22;7429;52.498;13.480;2023-05-16T17:39:29;15.70;99.90
14682;DHT22;7429;52.498;13.480;2023-05-16T17:42:33;15.50;99.90
14682;DHT22;7429;52.498;13.480;2023-05-16T17:45:41;15.40;99.90
14682;DHT22;7429;52.498;13.480;2023-05-16T17:48:47;15.30;99.90
14682;DHT22;7429;52.498;13.480;2023-05-16T17:51:53;15.20;99.90
14682;DHT22;7429;52.498;13.480;2023-05-16T17:54:59;15.20;99.90
14682;DHT22;7429;52.498;13.480;2023-05-16T17:58:05;15.10;99.90
14682;DHT22;7429;52.498;13.480;2023-05-16T18:01:13;15.00;99.90
14682;DHT22;7429;52.498;13.480;2023-05-16T18:04:21;15.00;99.90
14682;DHT22;7429;52.498;13.480;2023-05-16T18:07:26;14.90;99.90
14682;DHT22;7429;52.498;13.480;2023-05-16T18:10:29;14.90;99.90
14682;DHT22;7429;52.498;13.480;2023-05-16T18:13:52;14.90;99.90
14682;DHT22;7429;52.498;13.480;2023-05-16T18:17:32;14.80;99.90
14682;DHT22;7429;52.498;13.480;2023-05-16T18:21:45;14.70;99.90
14682;DHT22;7429;52.498;13.480;2023-05-16T18:25:19;14.60;99.90
14682;DHT22;7429;52.498;13.480;2023-05-16T18:28:27;14.60;99.90
14682;DHT22;7429;52.498;13.480;2023-05-16T18:31:33;14.50;99.90
14682;DHT22;7429;52.498;13.480;2023-05-16T18:34:41;14.40;99.90
14682;DHT22;7429;52.498;13.480;2023-05-16T18:37:51;14.30;99.90
14682;DHT22;7429;52.498;13.480;2023-05-16T18:41:02;14.30;99.90
14682;DHT22;7429;52.498;13.480;2023-05-16T18:44:14;14.20;99.90
14682;DHT22;7429;52.498;13.480;2023-05-16T18:47:34;14.10;99.90
14682;DHT22;7429;52.498;13.480;2023-05-16T18:50:42;14.00;99.90
14682;DHT22;7429;52.498;13.480;2023-05-16T18:53:57;13.90;99.90
14682;DHT22;7429;52.498;13.480;2023-05-16T18:57:08;13.80;99.90
14682;DHT22;7429;52.498;13.480;2023-05-16T19:00:19;13.70;99.90
14682;DHT22;7429;52.498;13.480;2023-05-16T19:03:50;13.70;99.90
14682;DHT22;7429;52.498;13.480;2023-05-16T19:06:53;13.70;99.90
14682;DHT22;7429;52.498;13.480;2023-05-16T19:09:58;13.60;99.90
14682;DHT22;7429;52.498;13.480;2023-05-16T19:13:07;13.50;99.90
14682;DHT22;7429;52.498;13.480;2023-05-16T19:16:10;13.50;99.90
14682;DHT22;7429;52.498;13.480;2023-05-16T19:19:13;13.40;99.90
14682;DHT22;7429;52.498;13.480;2023-05-16T19:22:17;13.30;99.90
14682;DHT22;7429;52.498;13.480;2023-05-16T19:25:21;13.30;99.90
14682;DHT22;7429;52.498;13.480;2023-05-16T19:28:28;13.20;99.90
14682;DHT22;7429;52.498;13.480;2023-05-16T19:31:31;13.20;99.90
14682;DHT22;7429;52.498;13.480;2023-05-16T19:34:35;13.20;99.90
14682;DHT22;7429;52.498;13.480;2023-05-16T19:37:38;13.10;99.90
14682;DHT22;7429;52.498;13.480;2023-05-16T19:40:44;13.00;99.90
14682;DHT22;7429;52.498;13.480;2023-05-16T19:43:49;13.00;99.90
14682;DHT22;7429;52.498;13.480;2023-05-16T19:46:52;13.00;99.90
14682;DHT22;7429;52.498;13.480;2023-05-16T19:49:56;12.90;99.90
14682;DHT22;7429;52.498;13.480;2023-05-16T19:52:59;12.90;99.90
14682;DHT22;7429;52.498;13.480;2023-05-16T19:56:04;12.80;99.90
14682;DHT22;7429;52.498;13.480;2023-05-16T19:59:13;12.70;99.90
14682;DHT22;7429;52.498;13.480;2023-05-16T20:02:19;12.70;99.90
14682;DHT22;7429;52.498;13.480;2023-05-16T20:05:25;12.60;99.90
14682;DHT22;7429;52.498;13.480;2023-05-16T20:08:28;12.50;99.90
14682;DHT22;7429;52.498;13.480;2023-05-16T20:11:32;12.50;99.90